RSW weather

Southwest Florida International Airport
Fort Myers, Florida, United States

Public forecast

Using degrees Fahrenheit for public forecast. Weather courtesy of forecast.io.

METAR (pilot weather report)

Retrieved 2019/05/26 15:53 UTC (36 minutes ago):

KRSW 261553Z 13009KT 10SM SCT035 30/21 A3013 RMK AO2 SLP200 T03000206

TAF (pilot weather forecast)

Retrieved 2019/05/26 12:39 UTC (4 hours ago):

TAF KRSW 261136Z 2612/2712 07006KT P6SM SKC FM261500 10010KT P6SM FEW030 FM261900 09010KT P6SM FEW060